Time;durP1;ratioP1;P1;durP2;ratioP2;P2;SDS_P1;SDS_P2;PMS_P1;PMS_P2;Temp;Humidity;BMP_temperature;BMP_pressure;BME280_temperature;BME280_humidity;BME280_pressure;Samples;Min_cycle;Max_cycle;Signal;HPM_P1;HPM_P2
2021/03/16 00:00:25;;;;;;;4.97;2.37;;;;;;;5.23;90.71;100649.69;654438;217;24852;-78
2021/03/16 00:02:52;;;;;;;5.43;2.47;;;;;;;5.10;90.07;100652.69;639386;222;24895;-78
2021/03/16 00:05:20;;;;;;;6.97;3.23;;;;;;;5.15;89.94;100648.52;659084;217;24863;-78
2021/03/16 00:07:48;;;;;;;3.57;2.70;;;;;;;5.07;90.39;100649.03;652048;217;24840;-78
2021/03/16 00:10:16;;;;;;;5.27;2.60;;;;;;;5.07;90.89;100645.16;644105;221;24903;-78
2021/03/16 00:12:44;;;;;;;8.83;2.40;;;;;;;5.06;90.28;100651.22;650524;216;24825;-78
2021/03/16 00:15:13;;;;;;;6.50;2.73;;;;;;;5.10;91.11;100654.45;650960;220;24828;-78
2021/03/16 00:17:41;;;;;;;6.95;2.50;;;;;;;5.25;90.74;100665.05;636797;221;43413;-77
2021/03/16 00:20:10;;;;;;;5.73;2.63;;;;;;;5.15;90.99;100660.12;654239;217;23776;-78
2021/03/16 00:22:38;;;;;;;8.33;2.65;;;;;;;5.34;90.57;100663.14;640959;221;33024;-78
2021/03/16 00:25:08;;;;;;;5.80;2.70;;;;;;;5.26;90.70;100662.83;643979;221;23804;-78
2021/03/16 00:27:35;;;;;;;4.53;2.10;;;;;;;5.21;90.96;100661.84;654793;217;24815;-78
2021/03/16 00:30:04;;;;;;;3.30;2.13;;;;;;;5.33;90.58;100650.70;646661;220;24919;-78
2021/03/16 00:32:32;;;;;;;5.33;2.40;;;;;;;5.49;90.71;100657.43;641611;220;24906;-78
2021/03/16 00:35:00;;;;;;;3.40;2.17;;;;;;;5.31;90.74;100652.56;659426;216;24827;-78
2021/03/16 00:37:28;;;;;;;10.17;2.83;;;;;;;5.40;91.38;100665.80;650042;221;28045;-78
2021/03/16 00:39:56;;;;;;;3.53;2.20;;;;;;;5.46;90.11;100658.93;644548;220;24892;-78
2021/03/16 00:42:23;;;;;;;4.70;2.30;;;;;;;6.06;88.86;100660.95;635325;224;32981;-78
2021/03/16 00:44:51;;;;;;;5.93;2.20;;;;;;;5.82;88.37;100666.81;659464;216;24848;-78
2021/03/16 00:47:19;;;;;;;5.23;2.30;;;;;;;5.84;88.13;100669.28;648431;220;24883;-75
2021/03/16 00:49:47;;;;;;;4.60;2.30;;;;;;;5.83;88.91;100671.04;661008;217;24846;-75
2021/03/16 00:52:15;;;;;;;9.00;2.23;;;;;;;5.82;88.15;100670.68;656483;217;25074;-75
2021/03/16 00:54:43;;;;;;;4.03;2.20;;;;;;;5.93;87.71;100672.11;633044;222;32691;-78
2021/03/16 00:57:11;;;;;;;5.23;2.60;;;;;;;5.86;87.45;100678.56;647229;217;32511;-78
2021/03/16 00:59:38;;;;;;;6.63;2.63;;;;;;;5.47;90.08;100692.83;640127;222;24997;-77
2021/03/16 01:02:06;;;;;;;8.50;2.50;;;;;;;5.27;90.29;100697.54;648146;221;24883;-78
2021/03/16 01:04:34;;;;;;;8.83;2.53;;;;;;;5.28;91.59;100707.39;656315;217;26083;-78
2021/03/16 01:07:02;;;;;;;3.77;2.03;;;;;;;5.44;91.12;100702.06;642421;221;24955;-78
2021/03/16 01:09:30;;;;;;;3.53;2.57;;;;;;;5.29;91.28;100718.89;652961;216;24911;-78
2021/03/16 01:11:58;;;;;;;6.10;2.20;;;;;;;5.39;90.59;100717.02;649358;218;32892;-78
2021/03/16 01:14:26;;;;;;;3.73;2.53;;;;;;;5.19;92.26;100719.11;650131;221;26948;-78
2021/03/16 01:16:54;;;;;;;4.40;1.90;;;;;;;5.48;91.81;100720.27;652780;219;24914;-78
2021/03/16 01:19:22;;;;;;;9.60;2.73;;;;;;;5.50;91.30;100712.82;649222;221;25636;-75
2021/03/16 01:21:49;;;;;;;12.10;3.03;;;;;;;5.54;91.17;100701.83;652698;217;24885;-78
2021/03/16 01:24:17;;;;;;;6.70;1.70;;;;;;;5.61;89.88;100692.74;646602;221;24880;-78
2021/03/16 01:26:45;;;;;;;6.43;2.47;;;;;;;5.63;89.12;100690.87;640303;222;24892;-75
2021/03/16 01:29:13;;;;;;;3.73;1.80;;;;;;;5.75;89.13;100690.07;639523;221;24984;-75
2021/03/16 01:31:41;;;;;;;5.43;2.10;;;;;;;6.02;88.06;100686.12;649976;217;32658;-75
2021/03/16 01:34:09;;;;;;;3.20;1.83;;;;;;;5.73;88.17;100689.35;644036;222;24882;-75
2021/03/16 01:36:37;;;;;;;5.15;1.85;;;;;;;5.83;87.63;100685.23;651167;217;32617;-78
2021/03/16 01:39:05;;;;;;;6.10;1.97;;;;;;;5.27;88.27;100706.56;640892;221;23762;-78
2021/03/16 01:41:32;;;;;;;3.07;1.80;;;;;;;5.11;89.80;100711.52;657459;218;24872;-77
2021/03/16 01:44:00;;;;;;;7.83;2.13;;;;;;;5.04;90.34;100708.48;641774;221;24896;-77
2021/03/16 01:46:28;;;;;;;5.40;2.17;;;;;;;4.97;90.24;100714.97;646300;221;24884;-78
2021/03/16 01:48:56;;;;;;;2.30;1.40;;;;;;;4.95;90.43;100707.34;659568;216;27006;-78
2021/03/16 01:51:24;;;;;;;2.70;1.80;;;;;;;4.86;90.92;100707.91;660283;216;24845;-78
2021/03/16 01:53:52;;;;;;;5.30;2.00;;;;;;;4.92;90.36;100706.68;647550;221;25931;-78
2021/03/16 01:56:20;;;;;;;3.60;1.90;;;;;;;4.89;90.31;100695.28;653910;216;24830;-77
2021/03/16 01:58:47;;;;;;;6.37;1.95;;;;;;;4.99;89.67;100695.91;655089;216;43521;-78
2021/03/16 02:01:15;;;;;;;6.77;1.93;;;;;;;4.98;89.85;100694.72;662325;216;27944;-78
2021/03/16 02:03:43;;;;;;;4.63;1.93;;;;;;;4.97;90.00;100693.06;657076;217;24835;-78
2021/03/16 02:06:12;;;;;;;4.77;1.83;;;;;;;4.94;89.57;100695.38;638611;221;24882;-78
2021/03/16 02:08:42;;;;;;;4.63;1.80;;;;;;;4.96;88.83;100690.95;654195;217;32362;-77
2021/03/16 02:11:12;;;;;;;5.70;1.90;;;;;;;4.94;89.26;100694.09;643708;221;24859;-78
2021/03/16 02:13:40;;;;;;;4.95;1.50;;;;;;;5.04;88.44;100693.02;655542;217;32628;-78
2021/03/16 02:16:10;;;;;;;4.70;1.90;;;;;;;5.02;88.26;100687.14;651324;220;25075;-78
2021/03/16 02:18:38;;;;;;;4.75;1.30;;;;;;;5.17;87.97;100687.91;643027;218;32647;-78
2021/03/16 02:21:08;;;;;;;3.10;1.60;;;;;;;5.09;88.17;100686.30;642176;221;23856;-78
2021/03/16 02:23:40;;;;;;;3.73;1.60;;;;;;;5.05;87.33;100685.19;642045;222;24906;-77
2021/03/16 02:26:14;;;;;;;6.43;1.70;;;;;;;5.08;87.40;100691.09;655228;217;25261;-78
2021/03/16 02:28:53;;;;;;;3.93;1.57;;;;;;;5.01;87.27;100681.63;643483;221;25161;-78
2021/03/16 02:31:20;;;;;;;3.83;1.73;;;;;;;5.07;86.59;100685.12;658491;217;27007;-78
2021/03/16 02:33:48;;;;;;;4.00;1.53;;;;;;;5.05;86.27;100689.52;640316;221;24946;-78
2021/03/16 02:36:16;;;;;;;5.73;1.80;;;;;;;5.10;86.39;100684.09;653879;217;24829;-79
2021/03/16 02:38:44;;;;;;;4.07;1.20;;;;;;;5.18;85.61;100690.38;649881;216;24876;-78
2021/03/16 02:41:12;;;;;;;3.12;1.20;;;;;;;5.39;84.42;100693.81;652934;217;32505;-78
2021/03/16 02:43:40;;;;;;;6.60;1.70;;;;;;;5.30;85.26;100693.47;654211;217;23735;-78
2021/03/16 02:46:08;;;;;;;6.30;1.80;;;;;;;5.33;85.43;100697.59;648093;220;24822;-77
2021/03/16 02:48:36;;;;;;;4.87;1.40;;;;;;;5.49;84.83;100689.67;644090;221;24870;-78
2021/03/16 02:51:04;;;;;;;4.70;1.80;;;;;;;5.55;84.64;100678.97;644914;220;24978;-75
2021/03/16 02:53:32;;;;;;;5.87;1.50;;;;;;;5.69;84.53;100685.80;659776;216;24842;-75
2021/03/16 02:56:00;;;;;;;3.33;1.67;;;;;;;5.83;84.07;100692.98;639316;220;24917;-76
2021/03/16 02:58:27;;;;;;;3.40;1.30;;;;;;;6.33;82.37;100687.43;648502;216;32620;-75
2021/03/16 03:00:56;;;;;;;6.30;1.30;;;;;;;5.73;83.12;100681.61;649622;220;24158;-76
2021/03/16 03:03:23;;;;;;;6.00;2.50;;;;;;;5.56;82.58;100689.66;653413;219;24848;-77
2021/03/16 03:05:52;;;;;;;4.00;1.37;;;;;;;5.32;82.74;100692.08;641980;221;24912;-78
2021/03/16 03:08:20;;;;;;;4.93;1.20;;;;;;;5.25;82.28;100690.37;656330;217;24830;-78
2021/03/16 03:10:48;;;;;;;8.43;1.80;;;;;;;5.26;82.67;100706.66;650610;217;24849;-78
2021/03/16 03:13:16;;;;;;;4.30;1.00;;;;;;;5.29;81.91;100714.20;634830;221;32682;-77
2021/03/16 03:15:44;;;;;;;2.53;1.27;;;;;;;5.22;80.65;100715.07;655747;217;23779;-78
2021/03/16 03:18:11;;;;;;;7.00;1.77;;;;;;;5.23;81.53;100718.01;659759;216;24947;-77
2021/03/16 03:20:39;;;;;;;10.03;1.07;;;;;;;5.22;81.62;100727.96;644889;221;29499;-78
2021/03/16 03:23:09;;;;;;;5.50;1.30;;;;;;;5.30;83.77;100745.04;654229;218;28018;-77
2021/03/16 03:25:38;;;;;;;4.17;1.30;;;;;;;5.27;85.41;100766.34;639557;224;24891;-78
2021/03/16 03:28:06;;;;;;;7.67;1.60;;;;;;;5.21;84.93;100762.41;655086;217;24864;-78
2021/03/16 03:30:34;;;;;;;5.07;1.40;;;;;;;5.06;86.67;100772.37;656050;217;24923;-78
2021/03/16 03:33:02;;;;;;;6.47;1.30;;;;;;;4.99;87.97;100784.83;645907;221;28106;-78
2021/03/16 03:35:30;;;;;;;3.20;1.27;;;;;;;5.00;88.68;100782.61;654075;217;27056;-78
2021/03/16 03:37:58;;;;;;;4.17;0.93;;;;;;;5.14;86.17;100767.57;652756;216;24837;-78
2021/03/16 03:40:26;;;;;;;3.33;1.20;;;;;;;5.11;84.74;100762.61;650007;221;24842;-78
2021/03/16 03:42:55;;;;;;;4.93;1.53;;;;;;;5.18;85.82;100767.73;647053;222;24958;-77
2021/03/16 03:45:22;;;;;;;11.57;1.37;;;;;;;5.15;85.32;100770.52;658024;217;24829;-77
2021/03/16 03:47:50;;;;;;;3.73;1.10;;;;;;;5.21;85.01;100772.72;645208;221;24897;-77
2021/03/16 03:50:18;;;;;;;6.50;1.33;;;;;;;5.14;85.40;100772.73;653743;217;25149;-77
2021/03/16 03:52:46;;;;;;;6.80;1.43;;;;;;;5.22;85.45;100778.23;646376;217;32506;-77
2021/03/16 03:55:14;;;;;;;7.80;1.80;;;;;;;5.50;84.40;100772.16;635319;222;32663;-78
2021/03/16 03:57:42;;;;;;;5.12;1.30;;;;;;;5.35;85.28;100777.00;637076;222;32646;-77
2021/03/16 04:00:13;;;;;;;9.40;1.50;;;;;;;5.29;85.30;100783.36;639527;221;23799;-77
2021/03/16 04:02:41;;;;;;;3.73;1.30;;;;;;;5.18;85.56;100788.83;645577;219;27032;-77
2021/03/16 04:05:10;;;;;;;2.37;1.23;;;;;;;5.12;85.44;100787.93;654822;216;24859;-77
2021/03/16 04:07:38;;;;;;;3.13;1.17;;;;;;;5.05;85.73;100782.31;654594;216;24815;-77
2021/03/16 04:10:08;;;;;;;6.33;2.03;;;;;;;5.03;84.15;100780.30;660788;216;26168;-78
2021/03/16 04:12:36;;;;;;;7.43;1.30;;;;;;;4.99;84.54;100789.16;661331;216;24857;-77
2021/03/16 04:15:04;;;;;;;5.90;2.07;;;;;;;4.97;85.11;100791.00;658133;216;28012;-77
2021/03/16 04:17:32;;;;;;;6.63;1.27;;;;;;;5.00;85.63;100791.63;652657;216;24856;-77
2021/03/16 04:20:00;;;;;;;3.60;1.23;;;;;;;5.03;86.71;100802.20;657319;216;27999;-76
2021/03/16 04:22:28;;;;;;;11.93;1.50;;;;;;;5.02;87.03;100805.25;653334;217;24839;-77
2021/03/16 04:24:56;;;;;;;10.83;1.60;;;;;;;5.08;87.03;100805.34;639373;221;25072;-77
2021/03/16 04:27:24;;;;;;;4.63;1.23;;;;;;;4.94;86.65;100807.48;643613;221;24908;-77
2021/03/16 04:29:52;;;;;;;5.70;1.53;;;;;;;4.97;86.17;100798.73;643158;222;25965;-76
2021/03/16 04:32:19;;;;;;;5.10;1.50;;;;;;;4.94;84.09;100792.48;656637;217;24857;-77
2021/03/16 04:34:47;;;;;;;4.10;1.37;;;;;;;4.91;84.13;100801.21;655150;217;24895;-77
2021/03/16 04:37:15;;;;;;;3.07;1.10;;;;;;;4.90;84.69;100804.71;639069;221;24877;-77
2021/03/16 04:39:43;;;;;;;4.93;1.73;;;;;;;4.89;84.79;100800.95;647084;222;24894;-77
2021/03/16 04:42:11;;;;;;;5.60;1.53;;;;;;;4.85;84.82;100805.47;642168;221;24879;-77
2021/03/16 04:44:39;;;;;;;4.40;1.17;;;;;;;4.89;84.51;100798.36;651931;217;25127;-77
2021/03/16 04:47:07;;;;;;;6.93;1.57;;;;;;;4.93;84.40;100801.97;641095;222;25186;-77
2021/03/16 04:49:35;;;;;;;5.28;1.40;;;;;;;4.96;84.75;100808.69;647372;217;32451;-77
2021/03/16 04:52:02;;;;;;;5.90;1.60;;;;;;;4.92;85.02;100806.73;640780;221;23784;-77
2021/03/16 04:54:30;;;;;;;7.20;1.17;;;;;;;4.90;84.85;100811.16;653498;217;24864;-77
2021/03/16 04:56:58;;;;;;;4.03;1.30;;;;;;;4.90;85.59;100815.48;654495;217;24845;-77
2021/03/16 04:59:26;;;;;;;5.03;1.67;;;;;;;4.94;85.42;100805.38;640933;221;27100;-78
2021/03/16 05:01:54;;;;;;;5.27;1.63;;;;;;;4.94;85.36;100808.78;643600;221;25028;-77
2021/03/16 05:04:22;;;;;;;4.35;1.42;;;;;;;5.01;85.13;100813.91;635093;221;32659;-77
2021/03/16 05:06:50;;;;;;;3.00;1.30;;;;;;;4.98;85.64;100817.97;655780;217;23735;-77
2021/03/16 05:09:18;;;;;;;5.33;1.40;;;;;;;5.07;85.30;100821.73;654959;216;24840;-77
2021/03/16 05:11:46;;;;;;;8.60;1.37;;;;;;;4.95;86.37;100825.07;639305;222;24891;-76
2021/03/16 05:14:13;;;;;;;3.20;1.70;;;;;;;4.93;86.44;100837.23;662019;212;24831;-76
2021/03/16 05:16:41;;;;;;;5.70;1.20;;;;;;;4.89;87.36;100838.31;658478;217;27072;-77
2021/03/16 05:19:09;;;;;;;4.03;1.57;;;;;;;4.87;87.13;100841.45;646492;220;26207;-76
2021/03/16 05:21:37;;;;;;;2.77;1.30;;;;;;;4.89;87.01;100846.05;639355;220;32667;-77
2021/03/16 05:24:06;;;;;;;7.33;1.93;;;;;;;4.92;87.04;100844.56;654514;216;24836;-77
2021/03/16 05:26:34;;;;;;;3.10;1.40;;;;;;;4.92;87.19;100845.84;649619;221;26968;-77
2021/03/16 05:29:02;;;;;;;3.47;1.27;;;;;;;5.01;86.61;100849.99;653770;219;24861;-77
2021/03/16 05:31:30;;;;;;;4.50;1.57;;;;;;;4.98;86.54;100851.48;659535;216;24836;-77
2021/03/16 05:33:58;;;;;;;2.63;1.30;;;;;;;5.15;86.28;100859.45;651127;217;24887;-77
2021/03/16 05:36:25;;;;;;;3.27;1.30;;;;;;;5.19;85.59;100862.20;649105;221;25197;-77
2021/03/16 05:38:53;;;;;;;6.75;1.50;;;;;;;5.34;85.51;100857.39;646954;220;32521;-78
2021/03/16 05:41:21;;;;;;;6.60;1.40;;;;;;;5.09;85.94;100858.56;642608;221;25913;-77
2021/03/16 05:43:49;;;;;;;4.13;1.43;;;;;;;5.12;86.02;100865.27;654150;217;24918;-78
2021/03/16 05:46:17;;;;;;;12.70;1.87;;;;;;;5.14;86.88;100871.98;638448;221;26062;-78
2021/03/16 05:48:47;;;;;;;7.33;1.80;;;;;;;5.13;86.83;100874.20;642535;221;24888;-79
2021/03/16 05:51:15;;;;;;;7.10;1.90;;;;;;;5.18;87.13;100868.75;642171;221;24919;-78
2021/03/16 05:53:45;;;;;;;5.23;1.73;;;;;;;5.13;86.60;100870.33;646212;222;24897;-77
2021/03/16 05:56:13;;;;;;;5.60;1.33;;;;;;;5.09;84.80;100866.30;646407;221;26511;-78
2021/03/16 05:58:41;;;;;;;5.80;1.63;;;;;;;5.23;85.06;100848.22;655927;217;32518;-77
2021/03/16 06:01:09;;;;;;;7.20;1.97;;;;;;;5.21;85.19;100864.26;655553;216;24836;-77
2021/03/16 06:03:37;;;;;;;5.03;1.40;;;;;;;5.10;85.93;100870.52;659989;217;24829;-76
2021/03/16 06:06:05;;;;;;;3.67;1.23;;;;;;;5.19;86.14;100880.25;651931;217;24843;-78
2021/03/16 06:08:33;;;;;;;4.00;1.33;;;;;;;5.30;86.22;100879.14;638257;221;24882;-77
2021/03/16 06:11:01;;;;;;;9.50;1.63;;;;;;;5.30;86.46;100886.88;645040;221;24886;-78
2021/03/16 06:13:29;;;;;;;8.00;2.10;;;;;;;5.12;87.57;100884.61;640006;221;25911;-77
2021/03/16 06:15:57;;;;;;;6.17;1.53;;;;;;;5.01;87.62;100897.68;648778;221;24843;-77
2021/03/16 06:18:25;;;;;;;4.40;2.00;;;;;;;5.00;88.23;100901.64;641581;221;25188;-78
2021/03/16 06:20:59;;;;;;;7.78;2.10;;;;;;;5.22;87.86;100905.88;652544;217;32906;-78
2021/03/16 06:23:31;;;;;;;5.13;1.63;;;;;;;5.12;88.37;100912.97;650037;220;23752;-78
2021/03/16 06:25:59;;;;;;;6.40;1.60;;;;;;;5.13;88.97;100912.88;655388;217;24861;-78
2021/03/16 06:28:32;;;;;;;2.80;1.67;;;;;;;5.14;89.42;100920.14;646302;220;24931;-77
2021/03/16 06:30:59;;;;;;;5.87;2.03;;;;;;;5.10;90.11;100934.16;655514;217;24837;-77
2021/03/16 06:33:27;;;;;;;3.57;1.57;;;;;;;5.09;90.74;100940.23;644735;220;25336;-77
2021/03/16 06:35:58;;;;;;;5.63;1.83;;;;;;;5.13;89.96;100939.94;650350;220;25101;-77
2021/03/16 06:38:25;;;;;;;9.73;1.70;;;;;;;5.34;89.27;100931.34;634875;222;32687;-77
2021/03/16 06:40:54;;;;;;;12.23;2.30;;;;;;;5.35;89.89;100949.80;658786;216;23734;-77
2021/03/16 06:43:24;;;;;;;6.33;2.13;;;;;;;5.27;90.65;100946.38;640747;221;24914;-77
2021/03/16 06:45:52;;;;;;;7.10;1.82;;;;;;;5.38;89.80;100951.36;650347;217;32612;-76
2021/03/16 06:48:20;;;;;;;7.27;1.83;;;;;;;5.31;90.66;100953.47;644557;221;23754;-77
2021/03/16 06:50:48;;;;;;;4.50;1.50;;;;;;;5.40;90.94;100966.27;653839;219;29138;-77
2021/03/16 06:53:27;;;;;;;7.03;2.00;;;;;;;5.35;90.32;100962.70;641923;221;24693;-77
2021/03/16 06:55:56;;;;;;;5.87;1.77;;;;;;;5.27;90.24;100955.87;650250;219;24841;-77
2021/03/16 06:58:24;;;;;;;12.17;2.27;;;;;;;5.23;89.65;100968.13;648421;221;24896;-78
2021/03/16 07:00:52;;;;;;;9.00;2.10;;;;;;;5.21;90.01;100963.53;646727;221;24869;-77
2021/03/16 07:03:20;;;;;;;5.30;1.43;;;;;;;5.17;90.31;100967.65;647926;221;24888;-77
2021/03/16 07:05:48;;;;;;;4.15;1.70;;;;;;;5.31;89.85;100970.23;647159;217;32477;-77
2021/03/16 07:08:16;;;;;;;7.90;2.10;;;;;;;5.22;89.17;100970.34;640230;222;23782;-77
2021/03/16 07:10:44;;;;;;;6.12;2.10;;;;;;;5.30;89.40;100969.41;648030;219;32833;-76
2021/03/16 07:13:12;;;;;;;12.33;3.20;;;;;;;5.26;88.80;100974.84;641658;220;23748;-76
2021/03/16 07:15:40;;;;;;;8.23;2.30;;;;;;;5.28;89.88;100980.27;645214;220;24991;-76
2021/03/16 07:18:11;;;;;;;10.43;2.00;;;;;;;5.39;88.69;100980.09;653441;217;24818;-77
2021/03/16 07:20:39;;;;;;;4.27;1.70;;;;;;;5.40;88.31;100985.63;647959;221;24854;-77
2021/03/16 07:23:07;;;;;;;6.77;2.00;;;;;;;5.42;88.80;100985.06;654929;216;24852;-76
2021/03/16 07:25:34;;;;;;;6.83;1.93;;;;;;;5.35;88.48;100992.36;651596;217;24853;-76
2021/03/16 07:28:05;;;;;;;9.37;1.83;;;;;;;5.50;89.30;101000.45;651995;216;24847;-77
2021/03/16 07:30:33;;;;;;;6.60;2.00;;;;;;;5.58;89.78;101003.37;658666;216;24942;-77
2021/03/16 07:33:01;;;;;;;8.03;2.10;;;;;;;5.56;88.21;101006.52;657252;216;24865;-76
2021/03/16 07:35:29;;;;;;;6.37;2.20;;;;;;;5.67;88.42;101007.16;649414;221;29045;-77
2021/03/16 07:37:57;;;;;;;7.07;2.00;;;;;;;5.69;88.72;101014.34;651117;219;24838;-76
2021/03/16 07:40:25;;;;;;;3.80;1.80;;;;;;;5.64;87.89;101013.80;643529;221;24878;-77
2021/03/16 07:42:53;;;;;;;13.43;2.00;;;;;;;5.69;87.06;101016.92;646111;221;24899;-76
2021/03/16 07:45:25;;;;;;;10.57;2.00;;;;;;;5.76;88.32;101016.07;655217;216;24909;-76
2021/03/16 07:47:53;;;;;;;6.63;2.03;;;;;;;5.78;87.36;101021.99;645410;221;24924;-77
2021/03/16 07:50:27;;;;;;;5.27;2.20;;;;;;;5.70;86.95;101019.87;654200;216;24885;-76
2021/03/16 07:52:55;;;;;;;4.70;2.07;;;;;;;5.82;87.92;101026.03;648844;220;30147;-76
2021/03/16 07:55:26;;;;;;;6.83;2.07;;;;;;;5.89;88.07;101029.41;643345;220;29172;-77
2021/03/16 07:57:54;;;;;;;6.60;2.57;;;;;;;5.99;88.33;101027.59;655378;217;24867;-74
2021/03/16 08:00:29;;;;;;;5.80;1.70;;;;;;;6.01;87.28;101028.33;650011;220;24841;-74
2021/03/16 08:02:58;;;;;;;5.87;1.87;;;;;;;5.95;86.88;101021.34;657591;217;24878;-76
2021/03/16 08:05:27;;;;;;;9.10;1.87;;;;;;;6.04;86.23;101028.95;654154;217;25145;-76
2021/03/16 08:07:55;;;;;;;10.50;2.00;;;;;;;6.24;85.94;101020.80;651073;217;32497;-76
2021/03/16 08:10:27;;;;;;;8.00;2.43;;;;;;;6.20;84.57;101021.10;644227;221;23819;-76
2021/03/16 08:13:01;;;;;;;4.10;1.63;;;;;;;6.22;84.98;101032.16;643184;221;24909;-76
2021/03/16 08:15:29;;;;;;;5.10;1.70;;;;;;;6.33;84.26;101026.29;655982;217;24865;-76
2021/03/16 08:17:58;;;;;;;6.67;1.83;;;;;;;6.39;84.96;101030.62;652740;216;24850;-77
2021/03/16 08:20:26;;;;;;;4.97;1.77;;;;;;;6.68;84.81;101033.91;655325;217;24811;-76
2021/03/16 08:23:05;;;;;;;6.97;2.10;;;;;;;6.68;84.01;101027.45;652635;217;24820;-77
2021/03/16 08:25:33;;;;;;;9.10;2.10;;;;;;;6.76;83.99;101030.84;656572;216;24828;-76
2021/03/16 08:28:06;;;;;;;11.28;2.22;;;;;;;6.79;82.38;101021.58;638076;221;32897;-77
2021/03/16 08:30:31;;;;;;;5.70;1.93;;;;;;;6.64;82.39;101020.83;645421;221;25954;-76
2021/03/16 08:32:58;;;;;;;11.57;2.27;;;;;;;6.70;83.74;101025.58;640616;221;24881;-76
2021/03/16 08:35:27;;;;;;;6.63;2.00;;;;;;;6.77;82.60;101021.69;655644;217;28006;-76
2021/03/16 08:37:54;;;;;;;5.17;1.63;;;;;;;6.74;81.83;101021.03;638442;221;24865;-77
2021/03/16 08:40:22;;;;;;;4.97;1.67;;;;;;;6.70;79.80;101019.59;654811;217;24828;-76
2021/03/16 08:42:50;;;;;;;7.03;2.10;;;;;;;6.96;80.52;101018.70;643917;221;24873;-77
2021/03/16 08:45:28;;;;;;;4.10;1.93;;;;;;;6.92;79.05;101015.14;640948;221;24890;-76
2021/03/16 08:50:25;;;;;;;5.90;2.10;;;;;;;7.42;79.90;101016.89;650668;217;30948;-75
2021/03/16 08:52:53;;;;;;;4.17;1.70;;;;;;;7.23;79.26;101010.85;638443;224;24880;-74
2021/03/16 08:55:24;;;;;;;7.30;1.80;;;;;;;7.37;79.70;101024.14;637299;221;24885;-75
2021/03/16 08:57:53;;;;;;;5.60;1.60;;;;;;;7.22;80.58;101026.02;643047;220;24906;-76
2021/03/16 09:00:25;;;;;;;5.60;1.53;;;;;;;7.06;80.03;101031.39;654424;217;24855;-77
2021/03/16 09:02:53;;;;;;;7.50;2.33;;;;;;;6.92;82.19;101038.41;640653;221;24885;-76
2021/03/16 09:05:22;;;;;;;6.50;2.33;;;;;;;6.60;82.31;101044.36;644462;220;24927;-76
2021/03/16 09:07:50;;;;;;;4.50;3.50;;;;;;;6.49;83.96;101051.53;651394;217;25100;-76
2021/03/16 09:10:18;;;;;;;7.17;2.30;;;;;;;6.57;82.68;101054.91;648944;217;32495;-76
2021/03/16 09:12:46;;;;;;;6.90;2.73;;;;;;;6.60;81.82;101053.41;645541;221;24902;-76
2021/03/16 09:15:14;;;;;;;5.27;1.43;;;;;;;6.71;81.28;101054.84;645009;221;24839;-76
2021/03/16 09:17:42;;;;;;;5.73;1.70;;;;;;;6.72;81.12;101052.62;645347;220;24886;-76
2021/03/16 09:20:12;;;;;;;4.23;1.37;;;;;;;6.81;81.30;101060.62;650272;217;24821;-76
2021/03/16 09:22:40;;;;;;;6.90;1.60;;;;;;;6.78;81.39;101057.41;647080;218;24894;-76
2021/03/16 09:25:09;;;;;;;4.90;1.37;;;;;;;6.79;81.51;101061.66;646017;218;24825;-76
2021/03/16 09:27:39;;;;;;;6.33;1.53;;;;;;;6.81;79.80;101059.33;649376;217;24826;-76
2021/03/16 09:30:05;;;;;;;7.23;1.67;;;;;;;6.66;79.91;101051.73;650608;217;24825;-76
2021/03/16 09:32:33;;;;;;;6.00;1.43;;;;;;;6.52;79.05;101050.87;642339;222;24871;-77
2021/03/16 09:35:01;;;;;;;5.27;1.57;;;;;;;6.51;78.30;101050.51;643306;222;24924;-76
2021/03/16 09:37:29;;;;;;;5.20;1.70;;;;;;;6.86;79.92;101060.30;639262;222;24898;-76
2021/03/16 09:39:57;;;;;;;6.93;1.90;;;;;;;7.11;80.75;101065.53;647263;217;43795;-76
2021/03/16 09:42:31;;;;;;;6.43;1.60;;;;;;;6.96;78.66;101056.20;641472;221;24867;-76
2021/03/16 09:45:02;;;;;;;5.40;1.60;;;;;;;7.31;79.16;101049.95;641240;222;24870;-77
2021/03/16 09:47:27;;;;;;;7.60;1.80;;;;;;;7.55;77.89;101050.52;633578;222;32774;-76
2021/03/16 09:50:08;;;;;;;9.60;1.93;;;;;;;7.49;78.50;101043.19;642182;222;24875;-77
2021/03/16 09:52:35;;;;;;;11.10;2.30;;;;;;;7.40;78.57;101044.63;651102;219;24821;-77
2021/03/16 09:55:04;;;;;;;9.10;1.70;;;;;;;7.39;77.09;101036.51;650858;217;32375;-76
2021/03/16 09:57:32;;;;;;;5.50;1.67;;;;;;;7.55;77.26;101031.94;641944;222;24862;-76
2021/03/16 10:00:01;;;;;;;4.77;1.70;;;;;;;7.38;76.10;101029.68;642478;221;24864;-77
2021/03/16 10:02:33;;;;;;;2.60;1.27;;;;;;;7.54;76.85;101028.98;636155;221;24872;-77
2021/03/16 10:05:08;;;;;;;4.23;1.10;;;;;;;7.64;74.98;101023.55;643433;221;24888;-76
2021/03/16 10:07:35;;;;;;;3.37;1.10;;;;;;;7.66;73.30;101015.67;644122;221;24874;-76
2021/03/16 10:10:10;;;;;;;5.80;1.80;;;;;;;7.85;75.11;101020.38;644874;221;24850;-77
2021/03/16 10:12:38;;;;;;;9.90;1.40;;;;;;;7.92;72.49;101011.27;646776;220;24892;-76
2021/03/16 10:15:07;;;;;;;2.77;1.20;;;;;;;7.88;72.05;101004.62;649966;221;24788;-74
2021/03/16 10:17:35;;;;;;;10.50;1.73;;;;;;;7.75;72.74;101012.45;641969;221;24876;-75
2021/03/16 10:20:04;;;;;;;4.17;1.70;;;;;;;7.58;71.79;100999.36;639458;221;24911;-76
2021/03/16 10:22:32;;;;;;;5.10;1.40;;;;;;;7.99;70.35;100995.16;640887;221;24883;-76
2021/03/16 10:25:00;;;;;;;3.43;1.20;;;;;;;8.03;70.16;100999.68;624823;221;24930;-74
2021/03/16 10:27:28;;;;;;;2.80;1.33;;;;;;;8.30;69.95;100993.81;653166;217;24829;-74
2021/03/16 10:29:56;;;;;;;5.60;2.20;;;;;;;8.57;68.02;100991.44;645893;221;24863;-74
2021/03/16 10:32:24;;;;;;;4.77;1.23;;;;;;;8.88;68.42;100989.55;654382;217;24848;-74
2021/03/16 10:34:52;;;;;;;5.77;1.70;;;;;;;8.87;67.35;100982.70;641537;221;24874;-74
2021/03/16 10:37:20;;;;;;;5.20;1.50;;;;;;;9.17;66.43;100979.56;638831;221;24872;-75
2021/03/16 10:39:48;;;;;;;5.20;1.50;;;;;;;9.55;65.83;100971.86;653379;217;24816;-74
2021/03/16 10:42:16;;;;;;;5.67;1.67;;;;;;;9.55;64.72;100965.84;648707;219;24838;-75
2021/03/16 10:44:44;;;;;;;3.03;1.10;;;;;;;9.31;64.93;100965.52;648545;220;24777;-75
2021/03/16 10:47:13;;;;;;;5.83;1.40;;;;;;;9.44;67.92;100975.79;640244;222;24909;-75
2021/03/16 10:49:40;;;;;;;6.77;1.73;;;;;;;9.82;63.76;100968.87;653852;217;24812;-74
2021/03/16 10:52:08;;;;;;;4.60;1.83;;;;;;;9.83;64.71;100968.74;646549;222;30124;-75
2021/03/16 10:54:38;;;;;;;9.87;1.67;;;;;;;9.96;65.02;100966.00;638007;222;24897;-75
2021/03/16 10:57:05;;;;;;;3.53;1.33;;;;;;;9.76;64.18;100962.87;642769;222;24855;-75
2021/03/16 10:59:33;;;;;;;4.80;1.50;;;;;;;9.62;64.39;100955.34;642680;222;24328;-73
2021/03/16 11:02:02;;;;;;;6.05;1.60;;;;;;;8.98;64.44;100959.83;640165;218;32547;-74
2021/03/16 11:04:30;;;;;;;2.93;1.40;;;;;;;9.17;66.30;100965.76;647767;218;23715;-74
2021/03/16 11:06:58;;;;;;;2.97;1.50;;;;;;;8.92;63.58;100965.02;649050;218;24838;-75
2021/03/16 11:09:26;;;;;;;5.40;1.40;;;;;;;8.96;65.25;100970.80;647316;218;24816;-74
2021/03/16 11:11:54;;;;;;;5.83;2.23;;;;;;;8.01;68.50;100971.73;646393;221;24808;-75
2021/03/16 11:14:22;;;;;;;5.53;2.00;;;;;;;7.58;68.98;100987.72;650969;219;29053;-76
2021/03/16 11:16:50;;;;;;;10.70;2.97;;;;;;;7.62;69.37;100988.35;652398;218;24827;-76
2021/03/16 11:19:18;;;;;;;8.10;1.40;;;;;;;7.81;69.58;100988.70;644099;219;24824;-76
2021/03/16 11:21:46;;;;;;;6.90;1.53;;;;;;;7.90;69.73;100991.95;640722;221;24841;-76
2021/03/16 11:24:14;;;;;;;1.70;1.10;;;;;;;8.26;71.37;100988.47;640202;221;24943;-75
2021/03/16 11:26:42;;;;;;;5.77;1.60;;;;;;;8.61;70.83;100990.30;644264;221;27260;-75
2021/03/16 11:29:10;;;;;;;5.83;1.47;;;;;;;8.59;69.94;100987.83;643502;221;24860;-75
2021/03/16 11:31:38;;;;;;;5.40;1.37;;;;;;;8.93;68.16;100974.45;652809;218;32491;-75
2021/03/16 11:34:06;;;;;;;6.13;1.70;;;;;;;9.29;65.51;100959.63;635365;221;32926;-75
2021/03/16 11:36:34;;;;;;;4.07;1.50;;;;;;;9.42;65.59;100957.70;634800;221;34180;-75
2021/03/16 11:39:01;;;;;;;3.27;1.40;;;;;;;9.16;64.40;100952.43;640321;221;32662;-75